VCBI

Bandaranaike International Airport

Airport
ICAO code
VCBI
IATA Code
CMB
Summary
ICAO Region
APAC
ICAO Territory
Location

Negombo, Western Province

Serving
Colombo
Elevation
26 ft
Coordinates
7° 10' 52" N , 79° 53' 2" E
KCC
Am
Metar
Observation
VCBI 120010Z 24006KT 210V300 9999 SCT016 27/24 Q1008 NOSIG
Station
Katunayake
Date/Time
2022-08-12 00:10:00
Wind direction
240°
Wind speed
06 kts
Lowest cloud amount
scattered clouds
Temperature
27°C
Dew point
24°C
Humidity
83%
QNH
1008 hPa
Weather condition
n/a

Colombo International Airport (commonly known as Bandaranaike International Airport, Colombo-Bandaranaike and locally as Katunayake Airport) is the main international airport serving Sri Lanka.

Climatology

Tropical monsoon climate (Köppen climate classification Am)

Runways

Designator Length Width Surface Rops
4/22 3350 45 ASP Yes/Yes

Airport map

Aerial View

SKYbrary Partners:

Safety knowledge contributed by: